Time;durP1;ratioP1;P1;durP2;ratioP2;P2;SDS_P1;SDS_P2;PMS_P1;PMS_P2;Temp;Humidity;BMP_temperature;BMP_pressure;BME280_temperature;BME280_humidity;BME280_pressure;Samples;Min_cycle;Max_cycle;Signal;HPM_P1;HPM_P2
2023/10/19 00:04:07;;;;;;;54.00;26.50;;;;;;;;;;10524536;28;20061;-80
2023/10/19 00:09:11;;;;;;;50.97;26.63;;;;;;;;;;10530619;28;20047;-82
2023/10/19 00:14:18;;;;;;;61.07;30.60;;;;;;;;;;10529876;28;20648;-82
2023/10/19 00:19:19;;;;;;;54.23;26.80;;;;;;;;;;10517228;28;20391;-80
2023/10/19 00:24:23;;;;;;;47.73;23.93;;;;;;;;;;10529945;28;20039;-81
2023/10/19 00:29:30;;;;;;;60.13;29.23;;;;;;;;;;10530263;28;20040;-81
2023/10/19 00:34:31;;;;;;;45.20;25.03;;;;;;;;;;10491298;22;20072;-80
2023/10/19 00:39:42;;;;;;;50.30;26.33;;;;;;;;;;10446999;28;20033;-82
2023/10/19 00:44:48;;;;;;;42.57;22.47;;;;;;;;;;10446053;28;20542;-80
2023/10/19 00:49:50;;;;;;;44.77;22.30;;;;;;;;;;10437222;28;20498;-81
2023/10/19 00:54:55;;;;;;;52.07;25.00;;;;;;;;;;10445480;28;20041;-81
2023/10/19 01:00:11;;;;;;;47.23;21.43;;;;;;;;;;10445478;28;20068;-82
2023/10/19 01:05:21;;;;;;;47.28;23.85;;;;;;;;;;10445505;28;20365;-81
2023/10/19 01:10:28;;;;;;;52.27;25.60;;;;;;;;;;10444166;28;20033;-81
2023/10/19 01:20:50;;;;;;;61.43;29.57;;;;;;;;;;10444931;28;20041;-81
2023/10/19 01:31:06;;;;;;;60.60;31.13;;;;;;;;;;10458504;28;20246;-80
2023/10/19 01:41:26;;;;;;;65.83;32.73;;;;;;;;;;10485751;28;20044;-82
2023/10/19 01:46:33;;;;;;;63.60;32.57;;;;;;;;;;10484134;28;20040;-80
2023/10/19 01:51:43;;;;;;;70.03;37.53;;;;;;;;;;10484247;28;20039;-81
2023/10/19 01:56:44;;;;;;;53.93;29.13;;;;;;;;;;10471533;28;20032;-81
2023/10/19 02:01:46;;;;;;;61.47;34.30;;;;;;;;;;10482796;28;20032;-81
2023/10/19 02:06:47;;;;;;;61.10;32.27;;;;;;;;;;10484375;28;20032;-81
2023/10/19 02:11:50;;;;;;;55.30;27.17;;;;;;;;;;10482722;28;20024;-80
2023/10/19 02:16:52;;;;;;;56.50;27.27;;;;;;;;;;10483905;28;20516;-80
2023/10/19 02:21:57;;;;;;;58.37;30.67;;;;;;;;;;10484606;28;20067;-81
2023/10/19 02:26:58;;;;;;;47.43;24.27;;;;;;;;;;10483024;28;20028;-80
2023/10/19 02:32:05;;;;;;;55.67;27.70;;;;;;;;;;10483766;28;20041;-81
2023/10/19 02:37:07;;;;;;;59.47;28.97;;;;;;;;;;10484053;28;20028;-81
2023/10/19 02:42:08;;;;;;;42.70;20.70;;;;;;;;;;10483112;28;20042;-80
2023/10/19 02:47:09;;;;;;;52.87;26.63;;;;;;;;;;10482331;28;20101;-81
2023/10/19 02:52:13;;;;;;;44.43;24.23;;;;;;;;;;10475839;28;20146;-81
2023/10/19 02:57:14;;;;;;;47.73;23.70;;;;;;;;;;10482525;28;20060;-79
2023/10/19 03:02:17;;;;;;;43.53;23.30;;;;;;;;;;10482685;28;20072;-79
2023/10/19 03:07:18;;;;;;;45.60;22.63;;;;;;;;;;10480414;28;20476;-83
2023/10/19 03:12:20;;;;;;;64.63;30.40;;;;;;;;;;10482832;28;20048;-80
2023/10/19 03:17:21;;;;;;;61.20;31.73;;;;;;;;;;10481223;28;20102;-81
2023/10/19 03:22:23;;;;;;;47.50;25.47;;;;;;;;;;10482321;28;20118;-80
2023/10/19 03:27:24;;;;;;;56.90;29.27;;;;;;;;;;10480599;28;20051;-80
2023/10/19 03:32:32;;;;;;;60.73;28.87;;;;;;;;;;10481445;28;20056;-83
2023/10/19 03:37:36;;;;;;;49.07;24.60;;;;;;;;;;10487731;28;20549;-81
2023/10/19 03:42:46;;;;;;;50.77;27.10;;;;;;;;;;10490430;28;20060;-81
2023/10/19 03:47:49;;;;;;;55.47;27.20;;;;;;;;;;10474905;28;20072;-80
2023/10/19 03:52:51;;;;;;;44.07;24.40;;;;;;;;;;10490351;28;20043;-81
2023/10/19 03:57:54;;;;;;;48.50;25.73;;;;;;;;;;10487177;28;20487;-80
2023/10/19 04:02:55;;;;;;;47.47;24.73;;;;;;;;;;10483123;28;20037;-81
2023/10/19 04:07:57;;;;;;;63.83;31.73;;;;;;;;;;10488856;28;20480;-83
2023/10/19 04:13:01;;;;;;;59.20;32.50;;;;;;;;;;10487881;28;20373;-83
2023/10/19 04:18:08;;;;;;;71.10;36.80;;;;;;;;;;10481829;28;20133;-81
2023/10/19 04:23:15;;;;;;;77.00;37.20;;;;;;;;;;10479570;28;20039;-83
2023/10/19 04:28:20;;;;;;;64.27;31.93;;;;;;;;;;10485278;28;20042;-79
2023/10/19 04:33:34;;;;;;;72.95;36.45;;;;;;;;;;10484730;28;20068;-81
2023/10/19 04:38:35;;;;;;;82.87;39.60;;;;;;;;;;10485841;28;20510;-81
2023/10/19 04:43:37;;;;;;;103.90;55.13;;;;;;;;;;10470653;28;20028;-80
2023/10/19 04:48:39;;;;;;;96.30;52.00;;;;;;;;;;10487247;28;20053;-82
2023/10/19 04:53:42;;;;;;;80.63;43.33;;;;;;;;;;10488328;28;20039;-81
2023/10/19 04:58:43;;;;;;;67.87;36.43;;;;;;;;;;10482166;28;20417;-81
2023/10/19 05:03:44;;;;;;;57.30;30.63;;;;;;;;;;10465503;28;20028;-80
2023/10/19 05:08:46;;;;;;;82.50;42.70;;;;;;;;;;10486529;28;20054;-81
2023/10/19 05:13:47;;;;;;;69.90;36.70;;;;;;;;;;10486447;28;20060;-80
2023/10/19 05:18:48;;;;;;;79.77;41.70;;;;;;;;;;10486118;28;20396;-80
2023/10/19 05:23:49;;;;;;;80.83;42.97;;;;;;;;;;10485761;28;20039;-82
2023/10/19 05:28:50;;;;;;;75.87;39.33;;;;;;;;;;10499001;28;20074;-82
2023/10/19 05:33:53;;;;;;;86.40;42.57;;;;;;;;;;10473640;28;20502;-80
2023/10/19 05:38:54;;;;;;;197.57;97.50;;;;;;;;;;10497414;28;20605;-82
2023/10/19 05:43:55;;;;;;;169.60;72.83;;;;;;;;;;10469568;28;20033;-81
2023/10/19 05:48:57;;;;;;;84.23;39.57;;;;;;;;;;10484642;28;20506;-82
2023/10/19 05:54:01;;;;;;;109.50;48.17;;;;;;;;;;10485076;28;20024;-81
2023/10/19 05:59:04;;;;;;;59.03;30.50;;;;;;;;;;10462081;28;20040;-80
2023/10/19 06:04:06;;;;;;;63.87;34.97;;;;;;;;;;10472413;28;20101;-82
2023/10/19 06:09:09;;;;;;;58.97;32.67;;;;;;;;;;10474430;28;20044;-80
2023/10/19 06:14:10;;;;;;;56.80;30.70;;;;;;;;;;10472351;28;20033;-81
2023/10/19 06:19:11;;;;;;;51.63;28.90;;;;;;;;;;10483685;28;20029;-81
2023/10/19 06:24:14;;;;;;;59.63;31.40;;;;;;;;;;10483953;28;20047;-82
2023/10/19 06:29:15;;;;;;;58.00;32.87;;;;;;;;;;10484518;28;20045;-83
2023/10/19 06:34:17;;;;;;;53.90;30.63;;;;;;;;;;10469261;28;20052;-81
2023/10/19 06:39:21;;;;;;;53.83;31.03;;;;;;;;;;10499891;22;20467;-82
2023/10/19 06:44:22;;;;;;;62.63;33.73;;;;;;;;;;10476923;28;20021;-80
2023/10/19 06:49:24;;;;;;;65.80;34.70;;;;;;;;;;10482505;28;20087;-83
2023/10/19 06:54:27;;;;;;;59.43;32.73;;;;;;;;;;10507527;22;20060;-82
2023/10/19 06:59:29;;;;;;;61.10;33.57;;;;;;;;;;10493279;28;20452;-83
2023/10/19 07:04:37;;;;;;;54.63;30.70;;;;;;;;;;10507039;22;20148;-80
2023/10/19 07:09:38;;;;;;;64.23;34.13;;;;;;;;;;10503112;28;20036;-80
2023/10/19 07:14:40;;;;;;;55.07;32.17;;;;;;;;;;10520806;28;20434;-80
2023/10/19 07:19:48;;;;;;;54.47;31.60;;;;;;;;;;10533500;28;20054;-80
2023/10/19 07:24:49;;;;;;;59.27;33.67;;;;;;;;;;10531985;28;20119;-83
2023/10/19 07:29:50;;;;;;;66.33;34.27;;;;;;;;;;10515552;28;20078;-83
2023/10/19 07:34:58;;;;;;;63.03;33.27;;;;;;;;;;10531715;28;20042;-81
2023/10/19 07:39:59;;;;;;;61.97;29.87;;;;;;;;;;10530256;28;20051;-80
2023/10/19 07:45:00;;;;;;;57.53;29.10;;;;;;;;;;10501825;28;20491;-82
2023/10/19 07:50:03;;;;;;;48.40;27.93;;;;;;;;;;10531544;28;20036;-82
2023/10/19 07:55:04;;;;;;;53.00;28.80;;;;;;;;;;10532062;28;20389;-83
2023/10/19 08:00:05;;;;;;;69.13;36.43;;;;;;;;;;10532274;28;20024;-82
2023/10/19 08:05:06;;;;;;;63.70;34.47;;;;;;;;;;10488284;28;20084;-83
2023/10/19 08:10:10;;;;;;;114.90;61.67;;;;;;;;;;10489815;28;20535;-83
2023/10/19 08:15:11;;;;;;;74.87;37.30;;;;;;;;;;10474564;28;20127;-82
2023/10/19 08:20:16;;;;;;;72.87;35.77;;;;;;;;;;10489268;28;20032;-81
2023/10/19 08:25:17;;;;;;;50.43;27.87;;;;;;;;;;10489925;28;20032;-81
2023/10/19 08:30:18;;;;;;;57.70;31.13;;;;;;;;;;10489055;28;20032;-81
2023/10/19 08:35:24;;;;;;;64.80;32.53;;;;;;;;;;10488017;28;20428;-81
2023/10/19 08:40:28;;;;;;;66.60;43.00;;;;;;;;;;10475982;28;20112;-81
2023/10/19 08:45:30;;;;;;;59.67;29.43;;;;;;;;;;10488643;28;20056;-82
2023/10/19 08:50:34;;;;;;;61.40;31.33;;;;;;;;;;10488702;28;20404;-84
2023/10/19 08:55:36;;;;;;;150.13;90.90;;;;;;;;;;10488175;28;20103;-81
2023/10/19 09:00:46;;;;;;;135.60;67.40;;;;;;;;;;10488431;28;20522;-83
2023/10/19 09:05:48;;;;;;;60.87;29.33;;;;;;;;;;10518969;28;20377;-83
2023/10/19 09:10:51;;;;;;;52.73;28.20;;;;;;;;;;10521756;28;20024;-81
2023/10/19 09:15:53;;;;;;;49.23;26.23;;;;;;;;;;10526880;28;20032;-83
2023/10/19 09:21:07;;;;;;;57.90;31.37;;;;;;;;;;10512889;28;20036;-84
2023/10/19 09:26:08;;;;;;;50.00;29.20;;;;;;;;;;10529518;28;20032;-83
2023/10/19 09:31:09;;;;;;;49.63;26.53;;;;;;;;;;10528352;28;20051;-83
2023/10/19 09:36:14;;;;;;;43.73;24.70;;;;;;;;;;10528376;28;20017;-82
2023/10/19 09:41:19;;;;;;;48.27;27.50;;;;;;;;;;10528036;28;20441;-83
2023/10/19 09:46:24;;;;;;;45.80;24.25;;;;;;;;;;10515847;28;20062;-84
2023/10/19 09:51:25;;;;;;;34.80;19.13;;;;;;;;;;10512939;28;20114;-83
2023/10/19 09:56:28;;;;;;;37.72;19.98;;;;;;;;;;10527669;28;20058;-83
2023/10/19 10:01:49;;;;;;;46.95;23.80;;;;;;;;;;10508570;28;20612;-81
2023/10/19 10:06:50;;;;;;;31.53;18.57;;;;;;;;;;10528187;28;20540;-83
2023/10/19 10:11:54;;;;;;;34.42;19.95;;;;;;;;;;10527481;28;20085;-81
2023/10/19 10:17:02;;;;;;;36.67;21.95;;;;;;;;;;10525217;28;20051;-82
2023/10/19 10:22:14;;;;;;;40.27;26.80;;;;;;;;;;10500747;28;20020;-83
2023/10/19 10:27:19;;;;;;;36.70;20.77;;;;;;;;;;10505748;28;20044;-84
2023/10/19 10:32:39;;;;;;;39.53;21.92;;;;;;;;;;10518253;28;20032;-84
2023/10/19 10:37:54;;;;;;;36.05;21.30;;;;;;;;;;10499698;28;20043;-85
2023/10/19 10:43:07;;;;;;;36.10;19.98;;;;;;;;;;10512552;28;20028;-83
2023/10/19 10:48:22;;;;;;;30.73;18.58;;;;;;;;;;10528675;28;20380;-82
2023/10/19 10:53:27;;;;;;;29.63;16.27;;;;;;;;;;10528311;28;20137;-82
2023/10/19 10:58:28;;;;;;;33.47;19.33;;;;;;;;;;10526851;28;20024;-84
2023/10/19 11:03:30;;;;;;;32.88;18.98;;;;;;;;;;10531325;28;20162;-82
2023/10/19 11:08:32;;;;;;;42.55;25.33;;;;;;;;;;10532960;28;20121;-93
2023/10/19 11:13:35;;;;;;;35.63;23.02;;;;;;;;;;10515209;28;20050;-84
2023/10/19 11:18:36;;;;;;;35.83;22.70;;;;;;;;;;10529194;28;20078;-86
2023/10/19 11:23:48;;;;;;;40.25;21.80;;;;;;;;;;10519216;22;20447;-82
2023/10/19 11:28:57;;;;;;;36.00;20.95;;;;;;;;;;10491071;28;20042;-83
2023/10/19 11:33:58;;;;;;;45.83;26.35;;;;;;;;;;10449857;28;20029;-82
2023/10/19 11:38:59;;;;;;;39.08;22.48;;;;;;;;;;10447221;28;20028;-85
2023/10/19 11:44:01;;;;;;;47.20;28.70;;;;;;;;;;10441815;28;20045;-86
2023/10/19 11:49:03;;;;;;;39.33;23.58;;;;;;;;;;10441122;28;20059;-83
2023/10/19 11:54:07;;;;;;;39.63;24.20;;;;;;;;;;10449308;28;20479;-83
2023/10/19 11:59:08;;;;;;;33.97;19.88;;;;;;;;;;10439653;28;20032;-84
2023/10/19 12:04:09;;;;;;;32.08;19.25;;;;;;;;;;10448013;28;20032;-87
2023/10/19 12:09:16;;;;;;;41.72;24.00;;;;;;;;;;10445416;28;20045;-84
2023/10/19 12:14:18;;;;;;;43.30;23.87;;;;;;;;;;10438571;28;20056;-84
2023/10/19 12:19:19;;;;;;;48.40;25.42;;;;;;;;;;10423516;28;20035;-85
2023/10/19 12:24:21;;;;;;;39.93;22.57;;;;;;;;;;10442787;28;20048;-82
2023/10/19 12:29:22;;;;;;;38.50;22.25;;;;;;;;;;10433672;28;20424;-83
2023/10/19 12:34:23;;;;;;;42.30;24.33;;;;;;;;;;10417688;28;20037;-84
2023/10/19 12:39:39;;;;;;;40.72;22.50;;;;;;;;;;10434213;28;20025;-83
2023/10/19 12:44:41;;;;;;;43.80;25.80;;;;;;;;;;10424436;28;20032;-84
2023/10/19 12:49:42;;;;;;;51.83;29.70;;;;;;;;;;10428397;28;20564;-86
2023/10/19 12:54:48;;;;;;;50.70;29.13;;;;;;;;;;10458963;28;20447;-85
2023/10/19 12:59:50;;;;;;;54.88;31.85;;;;;;;;;;10446642;28;20025;-87
2023/10/19 13:04:59;;;;;;;67.93;35.70;;;;;;;;;;10446920;28;20457;-85
2023/10/19 13:10:01;;;;;;;64.73;36.10;;;;;;;;;;10468182;22;20060;-85
2023/10/19 13:15:03;;;;;;;62.63;34.58;;;;;;;;;;10473484;28;20024;-86
2023/10/19 13:20:15;;;;;;;62.67;34.33;;;;;;;;;;10476560;28;20110;-86
2023/10/19 13:25:17;;;;;;;60.93;34.87;;;;;;;;;;10478513;28;20063;-87
2023/10/19 13:30:25;;;;;;;53.15;30.15;;;;;;;;;;10468710;28;20045;-87
2023/10/19 13:35:36;;;;;;;50.72;29.20;;;;;;;;;;10436527;28;20047;-85
2023/10/19 13:40:38;;;;;;;47.50;26.05;;;;;;;;;;10437670;28;20013;-86
2023/10/19 13:45:40;;;;;;;49.00;28.40;;;;;;;;;;10441089;28;20059;-85
2023/10/19 13:50:49;;;;;;;49.90;28.27;;;;;;;;;;10439055;28;20554;-88
2023/10/19 13:55:50;;;;;;;39.92;26.33;;;;;;;;;;10420835;28;20094;-86
2023/10/19 14:00:51;;;;;;;48.88;28.38;;;;;;;;;;10441870;28;20033;-86
2023/10/19 14:05:59;;;;;;;44.65;27.77;;;;;;;;;;10434863;28;20492;-88
2023/10/19 14:11:07;;;;;;;44.78;26.33;;;;;;;;;;10479204;22;20143;-86
2023/10/19 14:16:09;;;;;;;47.95;31.42;;;;;;;;;;10487430;28;20032;-86
2023/10/19 14:21:18;;;;;;;55.00;31.80;;;;;;;;;;10477749;28;20036;-89
2023/10/19 14:26:19;;;;;;;46.65;28.33;;;;;;;;;;10479789;28;20097;-81
2023/10/19 14:31:21;;;;;;;50.17;30.77;;;;;;;;;;10463021;28;20025;-79
2023/10/19 14:36:22;;;;;;;50.22;30.95;;;;;;;;;;10440315;28;20361;-83
2023/10/19 14:41:23;;;;;;;47.20;29.52;;;;;;;;;;10441170;28;20384;-86
2023/10/19 14:46:27;;;;;;;43.97;27.17;;;;;;;;;;10446568;28;20041;-84
2023/10/19 14:51:28;;;;;;;53.60;31.10;;;;;;;;;;10440833;28;20045;-81
2023/10/19 14:56:29;;;;;;;50.58;32.13;;;;;;;;;;10444632;28;20043;-81
2023/10/19 15:01:30;;;;;;;48.30;30.05;;;;;;;;;;10438160;28;20062;-84
2023/10/19 15:06:31;;;;;;;46.92;28.65;;;;;;;;;;10443357;28;20045;-80
2023/10/19 15:11:32;;;;;;;50.97;31.17;;;;;;;;;;10422003;28;20063;-79
2023/10/19 15:16:33;;;;;;;48.42;29.20;;;;;;;;;;10417185;28;20743;-87
2023/10/19 15:21:34;;;;;;;52.10;31.93;;;;;;;;;;10427090;28;20039;-86
2023/10/19 15:26:35;;;;;;;62.30;36.78;;;;;;;;;;10440939;28;20560;-86
2023/10/19 15:31:36;;;;;;;63.17;39.83;;;;;;;;;;10441263;28;20106;-85
2023/10/19 15:36:37;;;;;;;75.63;45.17;;;;;;;;;;10420269;28;20040;-85
2023/10/19 15:41:47;;;;;;;76.47;45.50;;;;;;;;;;10446559;28;20037;-86
2023/10/19 15:46:48;;;;;;;68.03;42.17;;;;;;;;;;10417618;28;20037;-86
2023/10/19 15:51:49;;;;;;;68.33;40.30;;;;;;;;;;10417286;28;20044;-85
2023/10/19 15:56:51;;;;;;;61.13;38.03;;;;;;;;;;10443565;28;20580;-85
2023/10/19 16:01:52;;;;;;;59.40;35.33;;;;;;;;;;10447551;28;20123;-86
2023/10/19 16:06:53;;;;;;;63.47;39.07;;;;;;;;;;10435830;28;20690;-86
2023/10/19 16:11:55;;;;;;;72.10;42.93;;;;;;;;;;10471343;28;20043;-85
2023/10/19 16:16:56;;;;;;;85.30;51.67;;;;;;;;;;10472896;28;20028;-85
2023/10/19 16:21:58;;;;;;;87.33;51.33;;;;;;;;;;10486095;28;20084;-85
2023/10/19 16:26:59;;;;;;;84.40;49.03;;;;;;;;;;10477023;28;20139;-87
2023/10/19 16:32:00;;;;;;;80.30;48.40;;;;;;;;;;10466266;28;20028;-85
2023/10/19 16:37:03;;;;;;;78.83;48.60;;;;;;;;;;10487382;28;20032;-86
2023/10/19 16:42:04;;;;;;;76.90;48.23;;;;;;;;;;10484848;28;20032;-86
2023/10/19 16:47:05;;;;;;;86.53;50.90;;;;;;;;;;10493568;28;20036;-85
2023/10/19 16:52:07;;;;;;;94.67;55.47;;;;;;;;;;10475846;28;20025;-85
2023/10/19 16:57:08;;;;;;;102.97;60.67;;;;;;;;;;10480846;28;20032;-87
2023/10/19 17:02:09;;;;;;;97.80;55.53;;;;;;;;;;10485063;28;20036;-86
2023/10/19 17:07:10;;;;;;;73.63;44.07;;;;;;;;;;10486198;28;20041;-86
2023/10/19 17:12:11;;;;;;;88.73;54.40;;;;;;;;;;10486431;28;20456;-86
2023/10/19 17:17:12;;;;;;;93.67;54.53;;;;;;;;;;10485700;28;20089;-87
2023/10/19 17:22:13;;;;;;;92.50;55.47;;;;;;;;;;10461571;28;20036;-87
2023/10/19 17:27:15;;;;;;;77.73;47.97;;;;;;;;;;10483991;28;20037;-86
2023/10/19 17:32:16;;;;;;;94.20;57.10;;;;;;;;;;10474461;28;20032;-87
2023/10/19 17:37:17;;;;;;;91.47;57.40;;;;;;;;;;10472596;28;20037;-86
2023/10/19 17:42:18;;;;;;;80.07;47.97;;;;;;;;;;10484559;28;20028;-86
2023/10/19 17:47:19;;;;;;;67.17;43.03;;;;;;;;;;10483023;28;20081;-86
2023/10/19 17:52:20;;;;;;;67.07;41.07;;;;;;;;;;10462165;28;20843;-86
2023/10/19 17:57:22;;;;;;;82.23;51.27;;;;;;;;;;10459248;28;20033;-80
2023/10/19 18:02:24;;;;;;;91.63;55.40;;;;;;;;;;10484392;28;20665;-79
2023/10/19 18:07:26;;;;;;;89.37;55.13;;;;;;;;;;10481873;28;20057;-82
2023/10/19 18:12:27;;;;;;;95.90;55.77;;;;;;;;;;10480347;28;20061;-81
2023/10/19 18:17:29;;;;;;;87.60;52.43;;;;;;;;;;10481814;28;20036;-81
2023/10/19 18:22:30;;;;;;;82.77;50.80;;;;;;;;;;10480697;28;20125;-83
2023/10/19 18:27:31;;;;;;;92.63;56.33;;;;;;;;;;10475585;28;20055;-82
2023/10/19 18:32:32;;;;;;;82.33;51.60;;;;;;;;;;10480964;28;20051;-82
2023/10/19 18:37:33;;;;;;;84.97;52.30;;;;;;;;;;10483549;28;20054;-82
2023/10/19 18:42:34;;;;;;;90.13;56.57;;;;;;;;;;10484817;28;20032;-82
2023/10/19 18:47:36;;;;;;;82.87;50.90;;;;;;;;;;10483415;28;20037;-82
2023/10/19 18:52:37;;;;;;;73.37;45.20;;;;;;;;;;10484041;28;20090;-83
2023/10/19 18:57:38;;;;;;;94.30;57.70;;;;;;;;;;10483515;28;20078;-81
2023/10/19 19:02:39;;;;;;;97.90;58.22;;;;;;;;;;10483444;28;20115;-81
2023/10/19 19:07:40;;;;;;;88.60;52.93;;;;;;;;;;10484862;28;20063;-82
2023/10/19 19:12:41;;;;;;;95.73;59.63;;;;;;;;;;10488332;28;20480;-83
2023/10/19 19:17:42;;;;;;;93.55;56.97;;;;;;;;;;10491008;28;20050;-82
2023/10/19 19:22:43;;;;;;;129.10;70.13;;;;;;;;;;10490739;28;20033;-82
2023/10/19 19:27:44;;;;;;;114.50;67.20;;;;;;;;;;10490645;28;20048;-83
2023/10/19 19:32:52;;;;;;;149.30;91.33;;;;;;;;;;10489970;28;20032;-81
2023/10/19 19:37:54;;;;;;;136.98;82.55;;;;;;;;;;10490559;28;20032;-81
2023/10/19 19:42:57;;;;;;;132.98;78.82;;;;;;;;;;10490030;28;20035;-82
2023/10/19 19:47:58;;;;;;;114.97;67.78;;;;;;;;;;10488542;28;20044;-82
2023/10/19 19:52:59;;;;;;;128.20;79.30;;;;;;;;;;10473554;28;20033;-82
2023/10/19 19:57:59;;;;;;;89.37;53.37;;;;;;;;;;10487979;28;20471;-81
2023/10/19 20:03:01;;;;;;;121.25;68.45;;;;;;;;;;10475982;28;20056;-82
2023/10/19 20:08:02;;;;;;;83.97;48.60;;;;;;;;;;10486571;28;20205;-82
2023/10/19 20:13:05;;;;;;;138.00;79.17;;;;;;;;;;10487719;28;20028;-83
2023/10/19 20:18:13;;;;;;;117.70;71.27;;;;;;;;;;10488879;28;20388;-81
2023/10/19 20:23:14;;;;;;;131.73;79.00;;;;;;;;;;10487988;28;20480;-83
2023/10/19 20:28:15;;;;;;;129.50;75.20;;;;;;;;;;10489076;28;20131;-82
2023/10/19 20:33:16;;;;;;;100.77;61.57;;;;;;;;;;10487897;28;20036;-82
2023/10/19 20:38:19;;;;;;;112.60;70.20;;;;;;;;;;10488533;28;20028;-82
2023/10/19 20:43:21;;;;;;;139.70;78.53;;;;;;;;;;10488470;28;20510;-81
2023/10/19 20:48:22;;;;;;;171.03;89.03;;;;;;;;;;10486520;28;20044;-82
2023/10/19 20:53:23;;;;;;;158.73;89.60;;;;;;;;;;10488322;28;20037;-82
2023/10/19 20:58:26;;;;;;;158.52;90.38;;;;;;;;;;10487303;28;20738;-82
2023/10/19 21:03:27;;;;;;;110.20;63.57;;;;;;;;;;10487098;28;20056;-82
2023/10/19 21:08:28;;;;;;;170.13;90.95;;;;;;;;;;10485756;28;20415;-82
2023/10/19 21:13:29;;;;;;;166.10;89.83;;;;;;;;;;10485818;28;20024;-82
2023/10/19 21:18:30;;;;;;;126.00;70.35;;;;;;;;;;10484826;28;20033;-80
2023/10/19 21:23:31;;;;;;;131.35;70.22;;;;;;;;;;10486307;28;20527;-82
2023/10/19 21:28:32;;;;;;;122.73;68.77;;;;;;;;;;10485161;28;20032;-81
2023/10/19 21:33:34;;;;;;;112.00;63.38;;;;;;;;;;10485754;28;20036;-81
2023/10/19 21:38:37;;;;;;;102.43;58.53;;;;;;;;;;10485640;28;20119;-82
2023/10/19 21:43:39;;;;;;;122.25;67.13;;;;;;;;;;10473753;28;20123;-83
2023/10/19 21:48:40;;;;;;;123.87;71.27;;;;;;;;;;10484869;28;21162;-81
2023/10/19 21:53:41;;;;;;;105.85;66.00;;;;;;;;;;10485493;28;20035;-81
2023/10/19 21:58:42;;;;;;;87.38;48.58;;;;;;;;;;10484733;28;20065;-81
2023/10/19 22:03:43;;;;;;;122.10;70.00;;;;;;;;;;10484769;28;20025;-81
2023/10/19 22:08:51;;;;;;;124.45;72.18;;;;;;;;;;10483959;28;20502;-81
2023/10/19 22:13:52;;;;;;;127.27;71.30;;;;;;;;;;10484258;28;20029;-84
2023/10/19 22:18:53;;;;;;;121.97;67.22;;;;;;;;;;10484746;28;20036;-82
2023/10/19 22:23:54;;;;;;;119.20;71.00;;;;;;;;;;10481976;28;20037;-84
2023/10/19 22:28:55;;;;;;;110.95;66.03;;;;;;;;;;10484700;28;20488;-81
2023/10/19 22:33:56;;;;;;;143.37;78.60;;;;;;;;;;10483886;28;20036;-81
2023/10/19 22:38:57;;;;;;;106.13;63.07;;;;;;;;;;10484122;28;20028;-81
2023/10/19 22:43:59;;;;;;;124.17;72.80;;;;;;;;;;10497574;28;20031;-83
2023/10/19 22:49:00;;;;;;;109.97;64.90;;;;;;;;;;10496483;28;20624;-83
2023/10/19 22:54:01;;;;;;;130.13;78.50;;;;;;;;;;10498086;28;20024;-81
2023/10/19 22:59:03;;;;;;;143.57;75.47;;;;;;;;;;10498157;28;20473;-82
2023/10/19 23:04:06;;;;;;;90.73;54.17;;;;;;;;;;10497166;28;20035;-81
2023/10/19 23:09:15;;;;;;;104.20;61.58;;;;;;;;;;10495796;28;20086;-82
2023/10/19 23:14:17;;;;;;;133.70;72.18;;;;;;;;;;10497585;28;20416;-83
2023/10/19 23:19:22;;;;;;;130.20;72.68;;;;;;;;;;10496136;28;20174;-82
2023/10/19 23:24:29;;;;;;;116.95;70.07;;;;;;;;;;10497177;28;20024;-82
2023/10/19 23:29:31;;;;;;;88.80;54.83;;;;;;;;;;10496727;28;20037;-82
2023/10/19 23:34:32;;;;;;;126.27;76.00;;;;;;;;;;10497019;28;20021;-82
2023/10/19 23:39:35;;;;;;;137.83;76.23;;;;;;;;;;10496056;28;20884;-83
2023/10/19 23:44:36;;;;;;;133.67;76.93;;;;;;;;;;10497025;28;20028;-82
2023/10/19 23:49:37;;;;;;;102.37;61.37;;;;;;;;;;10495403;28;20039;-82
2023/10/19 23:54:39;;;;;;;88.13;55.07;;;;;;;;;;10490937;28;20042;-82
2023/10/19 23:59:40;;;;;;;118.85;70.20;;;;;;;;;;10490270;28;20028;-81
